Time;durP1;ratioP1;P1;durP2;ratioP2;P2;SDS_P1;SDS_P2;PMS_P1;PMS_P2;Temp;Humidity;BMP_temperature;BMP_pressure;BME280_temperature;BME280_humidity;BME280_pressure;Samples;Min_cycle;Max_cycle;Signal;HPM_P1;HPM_P2
2023/07/06 00:01:23;;;;;;;2.83;1.40;;;14.90;99.90;;;;;;5040573;28;20075;-62
2023/07/06 00:03:51;;;;;;;5.60;1.85;;;14.90;99.90;;;;;;5039311;28;20080;-61
2023/07/06 00:06:18;;;;;;;3.80;1.48;;;14.80;99.90;;;;;;5037771;28;20045;-62
2023/07/06 00:08:44;;;;;;;2.95;1.45;;;14.80;99.90;;;;;;5039687;28;20356;-61
2023/07/06 00:11:11;;;;;;;4.95;1.60;;;14.80;99.90;;;;;;5038426;28;20492;-61
2023/07/06 00:13:39;;;;;;;6.30;2.15;;;14.80;99.90;;;;;;5039455;28;20045;-62
2023/07/06 00:16:06;;;;;;;8.65;3.50;;;14.80;99.90;;;;;;5039080;28;20100;-61
2023/07/06 00:18:33;;;;;;;3.58;1.77;;;14.70;99.90;;;;;;5044194;28;20040;-61
2023/07/06 00:21:00;;;;;;;4.65;2.10;;;14.70;99.90;;;;;;5045115;28;20047;-62
2023/07/06 00:23:28;;;;;;;4.10;1.75;;;14.70;99.90;;;;;;5035114;28;20045;-63
2023/07/06 00:25:54;;;;;;;5.97;1.50;;;14.70;99.90;;;;;;5029192;28;20515;-62
2023/07/06 00:28:26;;;;;;;4.18;1.77;;;14.70;99.90;;;;;;5041852;28;20562;-62
2023/07/06 00:30:55;;;;;;;4.20;1.63;;;14.60;99.90;;;;;;5033241;28;20409;-62
2023/07/06 00:33:23;;;;;;;5.13;1.55;;;14.50;99.90;;;;;;5030780;28;20045;-62
2023/07/06 00:35:50;;;;;;;2.15;1.25;;;14.40;99.90;;;;;;5044611;28;20052;-61
2023/07/06 00:38:21;;;;;;;3.40;1.40;;;14.40;99.90;;;;;;5037073;28;20068;-62
2023/07/06 00:40:50;;;;;;;4.68;1.52;;;14.40;99.90;;;;;;5044681;28;20057;-62
2023/07/06 00:43:20;;;;;;;7.53;1.65;;;14.40;99.90;;;;;;5040332;28;20128;-62
2023/07/06 00:45:52;;;;;;;3.95;1.40;;;14.30;99.90;;;;;;5029532;28;20081;-62
2023/07/06 00:48:26;;;;;;;3.05;1.48;;;14.30;99.90;;;;;;5005139;28;20045;-61
2023/07/06 00:50:58;;;;;;;5.15;1.73;;;14.30;99.90;;;;;;5026305;28;20049;-62
2023/07/06 00:53:28;;;;;;;2.38;1.20;;;14.30;99.90;;;;;;5014615;28;20689;-62
2023/07/06 00:55:57;;;;;;;6.03;1.20;;;14.30;99.90;;;;;;5030372;28;20061;-62
2023/07/06 00:58:52;;;;;;;2.97;1.25;;;14.30;99.90;;;;;;5012434;28;20076;-61
2023/07/06 01:01:19;;;;;;;7.05;2.85;;;14.30;99.90;;;;;;5030111;28;20480;-61
2023/07/06 01:03:49;;;;;;;4.55;1.10;;;14.30;99.90;;;;;;5013536;28;20079;-61
2023/07/06 01:06:26;;;;;;;4.20;1.45;;;14.20;99.90;;;;;;5029765;28;20048;-60
2023/07/06 01:08:55;;;;;;;7.53;1.35;;;14.20;99.90;;;;;;5029727;28;20041;-61
2023/07/06 01:11:22;;;;;;;11.63;1.50;;;14.20;99.90;;;;;;5018736;28;20288;-60
2023/07/06 01:13:50;;;;;;;5.03;1.38;;;14.10;99.90;;;;;;5010984;28;20048;-60
2023/07/06 01:16:37;;;;;;;5.68;1.08;;;14.10;99.90;;;;;;5038945;28;20136;-62
2023/07/06 01:19:25;;;;;;;4.43;1.50;;;14.10;99.90;;;;;;5032128;28;20045;-61
2023/07/06 01:21:58;;;;;;;5.63;1.75;;;14.10;99.90;;;;;;5043109;28;20045;-61
2023/07/06 01:24:31;;;;;;;7.67;1.57;;;14.10;99.90;;;;;;5037381;28;20530;-61
2023/07/06 01:26:58;;;;;;;3.23;1.97;;;14.10;99.90;;;;;;4668378;28;9999816;-62
2023/07/06 01:29:43;;;;;;;4.13;1.63;;;14.00;99.90;;;;;;5038357;28;20455;-62
2023/07/06 01:32:14;;;;;;;8.40;1.92;;;14.00;99.90;;;;;;5042340;28;20156;-62
2023/07/06 01:34:47;;;;;;;5.00;1.23;;;14.00;99.90;;;;;;5020037;28;20045;-61
2023/07/06 01:37:45;;;;;;;9.13;2.00;;;14.00;99.90;;;;;;5035117;28;20060;-61
2023/07/06 01:40:12;;;;;;;8.80;1.63;;;14.00;99.90;;;;;;5035420;28;20045;-61
2023/07/06 01:42:43;;;;;;;6.00;1.35;;;14.00;99.90;;;;;;5042401;28;20060;-62
2023/07/06 01:45:12;;;;;;;7.00;1.95;;;14.10;99.90;;;;;;5029557;28;20492;-60
2023/07/06 01:47:40;;;;;;;9.48;1.90;;;14.00;99.90;;;;;;5017000;28;20512;-62
2023/07/06 01:50:09;;;;;;;4.97;1.30;;;13.90;99.90;;;;;;5011927;28;20262;-60
2023/07/06 01:53:15;;;;;;;3.10;1.20;;;13.80;99.90;;;;;;5031171;28;20053;-61
2023/07/06 01:55:43;;;;;;;4.72;1.33;;;13.80;99.90;;;;;;5039828;28;20110;-62
2023/07/06 01:58:32;;;;;;;3.30;1.30;;;13.80;99.90;;;;;;5030548;28;20052;-62
2023/07/06 02:01:02;;;;;;;5.28;1.33;;;13.80;99.90;;;;;;5027677;28;20080;-62
2023/07/06 02:03:29;;;;;;;4.10;1.50;;;13.80;99.90;;;;;;5009948;28;20049;-61
2023/07/06 02:05:56;;;;;;;4.50;1.10;;;13.80;99.90;;;;;;5023956;28;20049;-59
2023/07/06 02:08:24;;;;;;;6.07;1.52;;;13.80;99.90;;;;;;5029771;28;20052;-60
2023/07/06 02:10:50;;;;;;;7.68;1.60;;;13.80;99.90;;;;;;5042205;28;20041;-61
2023/07/06 02:13:17;;;;;;;5.95;1.58;;;13.80;99.90;;;;;;5036683;28;20141;-60
2023/07/06 02:15:45;;;;;;;7.22;1.20;;;13.70;99.90;;;;;;5020293;28;20498;-60
2023/07/06 02:18:12;;;;;;;6.25;1.65;;;13.70;99.90;;;;;;5037184;28;20075;-59
2023/07/06 02:20:39;;;;;;;4.20;1.52;;;13.70;99.90;;;;;;5038371;28;20119;-60
2023/07/06 02:23:07;;;;;;;10.85;1.60;;;13.70;99.90;;;;;;5042706;28;20049;-59
2023/07/06 02:25:35;;;;;;;5.57;1.90;;;13.70;99.90;;;;;;5043152;28;20099;-59
2023/07/06 02:28:03;;;;;;;4.80;1.42;;;13.70;99.90;;;;;;5036846;28;20103;-60
2023/07/06 02:30:29;;;;;;;6.97;1.52;;;13.70;99.90;;;;;;5047004;28;20537;-60
2023/07/06 02:32:56;;;;;;;5.00;1.77;;;13.70;99.90;;;;;;5039332;28;20583;-60
2023/07/06 02:35:23;;;;;;;5.68;1.42;;;13.60;99.90;;;;;;5045977;28;20084;-60
2023/07/06 02:37:50;;;;;;;5.65;1.77;;;13.60;99.90;;;;;;5021162;28;20045;-60
2023/07/06 02:40:17;;;;;;;6.10;1.30;;;13.60;99.90;;;;;;5031181;28;20049;-60
2023/07/06 02:42:44;;;;;;;3.47;1.42;;;13.60;99.90;;;;;;5043525;28;20045;-61
2023/07/06 02:45:11;;;;;;;4.70;1.15;;;13.60;99.90;;;;;;5017562;28;20106;-61
2023/07/06 02:47:40;;;;;;;5.78;1.40;;;13.70;99.90;;;;;;5039055;28;20110;-62
2023/07/06 02:50:11;;;;;;;6.03;1.70;;;13.60;99.90;;;;;;5046559;28;20049;-61
2023/07/06 02:52:39;;;;;;;3.45;1.25;;;13.60;99.90;;;;;;5042274;28;20063;-61
2023/07/06 02:55:09;;;;;;;3.33;1.38;;;13.60;99.90;;;;;;5031129;28;20053;-60
2023/07/06 02:57:39;;;;;;;6.63;1.40;;;13.60;99.90;;;;;;5043545;28;20519;-60
2023/07/06 03:00:12;;;;;;;8.18;1.65;;;13.60;99.90;;;;;;5045260;28;20049;-60
2023/07/06 03:02:39;;;;;;;8.30;1.50;;;13.60;99.90;;;;;;5025556;28;20122;-61
2023/07/06 03:05:07;;;;;;;4.63;1.25;;;13.60;99.90;;;;;;5030992;28;20051;-61
2023/07/06 03:07:34;;;;;;;5.65;1.35;;;13.60;99.90;;;;;;5039683;28;20887;-61
2023/07/06 03:10:02;;;;;;;11.90;1.90;;;13.60;99.90;;;;;;5023268;28;20042;-62
2023/07/06 03:12:33;;;;;;;6.25;1.52;;;13.50;99.90;;;;;;5039457;28;20114;-61
2023/07/06 03:15:00;;;;;;;7.10;1.73;;;13.60;99.90;;;;;;5039687;28;20044;-61
2023/07/06 03:17:27;;;;;;;4.47;1.55;;;13.50;99.90;;;;;;5041929;28;20137;-61
2023/07/06 03:19:54;;;;;;;9.30;1.50;;;13.50;99.90;;;;;;5042470;28;20037;-61
2023/07/06 03:22:21;;;;;;;7.28;1.80;;;13.50;99.90;;;;;;5037521;28;20068;-61
2023/07/06 03:24:48;;;;;;;7.97;1.48;;;13.50;99.90;;;;;;5043929;28;20045;-60
2023/07/06 03:27:14;;;;;;;9.48;1.67;;;13.40;99.90;;;;;;5035166;28;20049;-60
2023/07/06 03:29:42;;;;;;;7.28;1.67;;;13.40;99.90;;;;;;5046102;28;20045;-61
2023/07/06 03:32:09;;;;;;;5.88;1.35;;;13.40;99.90;;;;;;5045802;28;20056;-60
2023/07/06 03:34:37;;;;;;;10.20;1.52;;;13.30;99.90;;;;;;5046382;28;20041;-61
2023/07/06 03:37:04;;;;;;;5.40;1.38;;;13.30;99.90;;;;;;5015890;28;20053;-60
2023/07/06 03:39:31;;;;;;;6.45;1.30;;;13.20;99.90;;;;;;5042240;28;20045;-60
2023/07/06 03:41:58;;;;;;;5.68;1.55;;;13.20;99.90;;;;;;5034106;28;20053;-62
2023/07/06 03:44:25;;;;;;;10.18;1.40;;;13.20;99.90;;;;;;5041960;28;20049;-60
2023/07/06 03:46:51;;;;;;;4.43;1.77;;;13.10;99.90;;;;;;5047924;28;20059;-60
2023/07/06 03:49:18;;;;;;;5.10;1.33;;;13.10;99.90;;;;;;5039521;28;20041;-60
2023/07/06 03:51:47;;;;;;;6.43;1.27;;;13.00;99.90;;;;;;5043935;28;20118;-60
2023/07/06 03:54:14;;;;;;;4.18;1.50;;;13.00;99.90;;;;;;5040549;28;20049;-60
2023/07/06 03:56:42;;;;;;;6.22;1.83;;;13.00;99.90;;;;;;5041012;28;20057;-60
2023/07/06 03:59:09;;;;;;;10.23;1.35;;;13.00;99.90;;;;;;5042687;28;20079;-60
2023/07/06 04:01:36;;;;;;;8.98;1.95;;;13.00;99.90;;;;;;5040618;28;20050;-60
2023/07/06 04:04:06;;;;;;;8.10;1.23;;;12.90;99.90;;;;;;5036219;28;20418;-60
2023/07/06 04:06:40;;;;;;;4.40;1.30;;;12.90;99.90;;;;;;5028234;28;20492;-60
2023/07/06 04:09:10;;;;;;;;;;;12.90;99.90;;;;;;5040372;28;20049;-60
2023/07/06 04:11:37;;;;;;;6.90;1.70;;;12.90;99.90;;;;;;5041307;28;19921;-60
2023/07/06 04:14:04;;;;;;;7.38;1.60;;;12.90;99.90;;;;;;5036527;28;20040;-60
2023/07/06 04:16:31;;;;;;;5.93;1.17;;;12.90;99.90;;;;;;5037471;28;20045;-60
2023/07/06 04:18:58;;;;;;;7.22;1.35;;;12.90;99.90;;;;;;5010923;28;20048;-60
2023/07/06 04:21:25;;;;;;;11.50;4.63;;;12.90;99.90;;;;;;5043616;28;20049;-60
2023/07/06 04:23:51;;;;;;;6.40;1.20;;;12.90;99.90;;;;;;5034829;28;20048;-60
2023/07/06 04:26:19;;;;;;;2.90;1.75;;;12.90;99.90;;;;;;5037203;28;20053;-61
2023/07/06 04:28:48;;;;;;;5.32;1.42;;;12.90;99.90;;;;;;5046128;28;20163;-60
2023/07/06 04:31:16;;;;;;;5.03;1.58;;;12.90;99.90;;;;;;5037862;28;20056;-60
2023/07/06 04:33:45;;;;;;;10.48;1.55;;;12.90;99.90;;;;;;5045452;28;20123;-60
2023/07/06 04:36:15;;;;;;;3.80;1.63;;;12.90;99.90;;;;;;5020086;28;20096;-62
2023/07/06 04:38:42;;;;;;;11.88;2.95;;;12.90;99.90;;;;;;5026709;28;20103;-62
2023/07/06 04:41:09;;;;;;;4.40;1.73;;;12.90;99.90;;;;;;5038497;28;20044;-59
2023/07/06 04:43:36;;;;;;;7.28;2.13;;;12.90;99.90;;;;;;5043674;28;20053;-60
2023/07/06 04:46:03;;;;;;;4.28;1.27;;;12.90;99.90;;;;;;5038992;28;20443;-60
2023/07/06 04:48:32;;;;;;;7.22;1.60;;;12.90;99.90;;;;;;5040855;28;20447;-60
2023/07/06 04:50:59;;;;;;;6.60;1.75;;;12.90;99.90;;;;;;5030340;28;20049;-60
2023/07/06 04:53:26;;;;;;;7.60;1.70;;;12.90;99.90;;;;;;5039350;28;20083;-61
2023/07/06 04:55:54;;;;;;;4.93;1.60;;;13.00;99.90;;;;;;5041463;28;20056;-61
2023/07/06 04:58:22;;;;;;;10.73;2.00;;;12.90;99.90;;;;;;5037582;28;20059;-60
2023/07/06 05:00:50;;;;;;;5.60;1.40;;;13.00;99.90;;;;;;5045660;28;20041;-60
2023/07/06 05:03:17;;;;;;;9.85;2.03;;;13.10;99.90;;;;;;5020215;28;20068;-60
2023/07/06 05:05:45;;;;;;;4.30;1.52;;;13.10;99.90;;;;;;5043219;28;20060;-60
2023/07/06 05:08:15;;;;;;;7.80;2.63;;;13.10;99.90;;;;;;5039547;28;20044;-61
2023/07/06 05:10:49;;;;;;;9.48;2.00;;;13.10;99.90;;;;;;5041924;28;20087;-61
2023/07/06 05:13:16;;;;;;;7.10;1.30;;;13.20;99.90;;;;;;5044114;28;20128;-61
2023/07/06 05:15:43;;;;;;;4.05;1.58;;;13.30;99.90;;;;;;5034013;28;20045;-61
2023/07/06 05:18:10;;;;;;;3.78;1.80;;;13.40;99.90;;;;;;5027412;28;20048;-62
2023/07/06 05:20:37;;;;;;;4.70;1.45;;;13.40;99.90;;;;;;5015558;28;20053;-62
2023/07/06 05:23:07;;;;;;;4.13;1.83;;;13.50;99.90;;;;;;5030879;28;20103;-61
2023/07/06 05:25:35;;;;;;;4.35;1.60;;;13.50;99.90;;;;;;5031622;28;20049;-61
2023/07/06 05:28:02;;;;;;;5.05;1.48;;;13.60;99.90;;;;;;5040255;28;20045;-61
2023/07/06 05:30:29;;;;;;;7.60;2.05;;;13.60;99.90;;;;;;5040896;28;20059;-61
2023/07/06 05:32:56;;;;;;;9.98;2.05;;;13.70;99.90;;;;;;5037226;28;20072;-60
2023/07/06 05:35:23;;;;;;;6.25;1.52;;;13.80;99.90;;;;;;5042988;28;20073;-60
2023/07/06 05:37:51;;;;;;;2.78;1.42;;;13.80;99.90;;;;;;5037437;28;20056;-61
2023/07/06 05:40:18;;;;;;;6.05;1.60;;;13.90;99.90;;;;;;5040792;28;20068;-60
2023/07/06 05:42:44;;;;;;;9.27;1.90;;;14.00;99.90;;;;;;5039490;28;20068;-61
2023/07/06 05:45:11;;;;;;;5.38;1.38;;;14.00;99.90;;;;;;5037905;28;20037;-60
2023/07/06 05:47:38;;;;;;;4.93;1.83;;;14.10;99.90;;;;;;5038372;28;20045;-60
2023/07/06 05:50:06;;;;;;;5.43;1.77;;;14.10;99.90;;;;;;5039360;28;20518;-60
2023/07/06 05:52:33;;;;;;;8.00;1.48;;;14.20;99.90;;;;;;5034338;28;20045;-61
2023/07/06 05:55:00;;;;;;;9.05;1.70;;;14.30;99.90;;;;;;5038395;28;20052;-60
2023/07/06 05:57:27;;;;;;;6.18;1.85;;;14.30;99.90;;;;;;5032858;28;20046;-60
2023/07/06 05:59:54;;;;;;;10.52;2.63;;;14.30;99.90;;;;;;5039780;28;20051;-61
2023/07/06 06:02:21;;;;;;;7.60;1.92;;;14.30;99.90;;;;;;5043256;28;20056;-61
2023/07/06 06:04:51;;;;;;;5.90;1.50;;;14.40;99.90;;;;;;5040098;28;20495;-61
2023/07/06 06:07:19;;;;;;;9.00;1.65;;;14.40;99.90;;;;;;5032917;28;20049;-62
2023/07/06 06:09:50;;;;;;;7.72;1.70;;;14.50;99.90;;;;;;5039798;28;20076;-61
2023/07/06 06:12:20;;;;;;;7.95;2.33;;;14.60;99.90;;;;;;5031723;28;20484;-62
2023/07/06 06:14:48;;;;;;;7.72;1.85;;;14.60;99.90;;;;;;5039822;28;20136;-61
2023/07/06 06:17:15;;;;;;;7.25;1.85;;;14.60;99.90;;;;;;5043651;28;20053;-61
2023/07/06 06:19:45;;;;;;;8.02;2.40;;;14.70;99.90;;;;;;5035916;28;20149;-61
2023/07/06 06:22:14;;;;;;;5.13;1.80;;;14.70;99.90;;;;;;5042976;28;20049;-61
2023/07/06 06:24:42;;;;;;;7.43;1.60;;;14.80;99.90;;;;;;5038664;28;20099;-60
2023/07/06 06:27:10;;;;;;;3.90;1.38;;;14.90;99.90;;;;;;5032353;28;20049;-61
2023/07/06 06:29:39;;;;;;;14.25;1.48;;;15.00;99.90;;;;;;5040967;28;20095;-60
2023/07/06 06:32:07;;;;;;;4.22;1.85;;;15.10;99.90;;;;;;5034337;28;20191;-60
2023/07/06 06:34:35;;;;;;;13.60;3.53;;;15.20;99.90;;;;;;5036048;28;20128;-60
2023/07/06 06:37:04;;;;;;;7.60;2.33;;;15.30;99.90;;;;;;5036440;28;20057;-60
2023/07/06 06:39:31;;;;;;;6.95;1.80;;;15.40;99.90;;;;;;5038001;28;20073;-60
2023/07/06 06:42:00;;;;;;;10.55;2.03;;;15.60;99.90;;;;;;5046601;28;20049;-61
2023/07/06 06:44:28;;;;;;;4.25;1.70;;;15.70;99.90;;;;;;5038688;28;20084;-62
2023/07/06 06:47:01;;;;;;;6.30;2.00;;;15.80;99.90;;;;;;5035313;28;20487;-61
2023/07/06 06:49:33;;;;;;;5.82;1.65;;;15.80;99.90;;;;;;5039173;28;20050;-60
2023/07/06 06:52:03;;;;;;;4.22;1.52;;;15.90;99.90;;;;;;5035688;28;20098;-60
2023/07/06 06:54:31;;;;;;;8.55;1.60;;;16.00;99.90;;;;;;5038477;28;20428;-60
2023/07/06 06:56:58;;;;;;;6.80;1.75;;;16.00;99.90;;;;;;5032211;28;20053;-59
2023/07/06 06:59:25;;;;;;;4.80;1.58;;;16.10;99.90;;;;;;5041291;28;20044;-59
2023/07/06 07:01:53;;;;;;;5.57;1.38;;;16.20;99.90;;;;;;5034256;28;20071;-60
2023/07/06 07:04:21;;;;;;;8.68;2.05;;;16.20;99.90;;;;;;5028258;28;20103;-59
2023/07/06 07:06:48;;;;;;;10.82;1.85;;;16.40;99.90;;;;;;5039641;28;20118;-61
2023/07/06 07:09:17;;;;;;;13.68;2.28;;;16.40;99.90;;;;;;5037586;28;20053;-59
2023/07/06 07:11:45;;;;;;;3.78;1.52;;;16.50;99.90;;;;;;5041773;28;20118;-61
2023/07/06 07:14:13;;;;;;;12.07;1.85;;;16.50;99.90;;;;;;5033840;28;20053;-60
2023/07/06 07:16:40;;;;;;;4.97;1.65;;;16.60;99.90;;;;;;5037785;28;20051;-60
2023/07/06 07:19:08;;;;;;;6.68;2.35;;;16.60;99.90;;;;;;5042379;28;20076;-60
2023/07/06 07:21:35;;;;;;;7.32;1.67;;;16.70;99.90;;;;;;5043506;28;20529;-60
2023/07/06 07:24:03;;;;;;;4.90;1.20;;;16.80;99.90;;;;;;5038254;28;20125;-59
2023/07/06 07:26:30;;;;;;;5.38;1.50;;;16.90;99.90;;;;;;5037339;28;20261;-62
2023/07/06 07:28:57;;;;;;;12.50;3.03;;;17.00;99.90;;;;;;5041981;28;20415;-59
2023/07/06 07:31:25;;;;;;;5.65;2.10;;;17.00;99.90;;;;;;5041915;28;20300;-60
2023/07/06 07:33:52;;;;;;;5.10;1.35;;;17.10;99.90;;;;;;5039110;28;20061;-62
2023/07/06 07:36:19;;;;;;;6.95;1.77;;;17.20;99.90;;;;;;5036502;28;20045;-60
2023/07/06 07:38:47;;;;;;;6.03;1.40;;;17.20;99.90;;;;;;5040945;28;20056;-59
2023/07/06 07:41:18;;;;;;;5.15;1.48;;;17.20;99.90;;;;;;5036223;28;20084;-59
2023/07/06 07:43:47;;;;;;;6.10;1.85;;;17.20;99.90;;;;;;5041342;28;20053;-61
2023/07/06 07:46:14;;;;;;;7.80;1.45;;;17.20;99.90;;;;;;5038314;28;20045;-60
2023/07/06 07:48:45;;;;;;;10.98;1.95;;;17.20;99.90;;;;;;5045657;28;20073;-60
2023/07/06 07:51:17;;;;;;;4.72;1.35;;;17.20;99.90;;;;;;5042898;28;20173;-60
2023/07/06 07:53:45;;;;;;;5.78;1.25;;;17.20;99.90;;;;;;5046679;28;20048;-61
2023/07/06 07:56:15;;;;;;;4.93;2.00;;;17.20;99.90;;;;;;5042566;28;20049;-60
2023/07/06 07:58:46;;;;;;;5.97;1.35;;;17.20;99.90;;;;;;5038273;28;20063;-60
2023/07/06 08:01:14;;;;;;;5.13;1.52;;;17.20;99.90;;;;;;5043798;28;20091;-61
2023/07/06 08:03:41;;;;;;;3.22;1.30;;;17.20;99.90;;;;;;5036366;28;20049;-60
2023/07/06 08:06:10;;;;;;;4.90;1.30;;;17.20;99.90;;;;;;5043163;28;20499;-60
2023/07/06 08:08:38;;;;;;;7.32;1.65;;;17.50;99.90;;;;;;5035355;28;20049;-60
2023/07/06 08:11:06;;;;;;;6.60;1.63;;;17.50;99.90;;;;;;5044221;28;20046;-59
2023/07/06 08:13:33;;;;;;;3.33;1.33;;;17.60;99.90;;;;;;5035717;28;20500;-60
2023/07/06 08:16:01;;;;;;;7.05;2.38;;;17.60;99.90;;;;;;5043419;28;20136;-60
2023/07/06 08:18:28;;;;;;;4.57;1.25;;;17.80;99.90;;;;;;5038170;28;20049;-59
2023/07/06 08:20:56;;;;;;;4.60;1.40;;;17.90;99.90;;;;;;5032917;28;20119;-60
2023/07/06 08:23:47;;;;;;;8.55;2.05;;;17.90;99.90;;;;;;5038104;28;20186;-56
2023/07/06 08:26:15;;;;;;;2.35;1.17;;;17.90;99.90;;;;;;5014254;28;20091;-59
2023/07/06 08:28:43;;;;;;;7.70;1.60;;;17.80;99.90;;;;;;5037708;28;20045;-59
2023/07/06 08:31:13;;;;;;;4.60;1.35;;;17.80;99.90;;;;;;5033631;28;20250;-65
2023/07/06 08:33:40;;;;;;;6.03;1.20;;;18.00;99.90;;;;;;5036874;28;20045;-60
2023/07/06 08:36:07;;;;;;;5.70;1.25;;;18.00;99.90;;;;;;5037314;28;20125;-60
2023/07/06 08:38:37;;;;;;;7.25;1.52;;;18.10;99.90;;;;;;5043615;28;20300;-60
2023/07/06 08:41:30;;;;;;;2.58;1.20;;;18.10;99.90;;;;;;5022290;28;20625;-60
2023/07/06 08:44:01;;;;;;;6.47;1.42;;;18.10;99.90;;;;;;5030640;28;20519;-60
2023/07/06 08:46:29;;;;;;;2.70;0.90;;;18.10;99.90;;;;;;5031201;28;20114;-60
2023/07/06 08:48:56;;;;;;;6.13;1.60;;;18.20;99.90;;;;;;5018223;28;20049;-59
2023/07/06 08:51:30;;;;;;;4.05;1.05;;;18.20;99.90;;;;;;5037848;28;20121;-60
2023/07/06 08:54:00;;;;;;;6.93;1.48;;;18.30;99.90;;;;;;5017154;28;20073;-59
2023/07/06 08:56:28;;;;;;;5.80;1.25;;;18.30;99.90;;;;;;5018994;28;20056;-60
2023/07/06 08:58:56;;;;;;;2.58;1.40;;;18.40;99.90;;;;;;5028132;28;20065;-60
2023/07/06 09:01:23;;;;;;;4.82;1.58;;;18.60;99.90;;;;;;5016289;28;20487;-59
2023/07/06 09:03:55;;;;;;;5.53;1.30;;;18.60;99.90;;;;;;5040469;28;20098;-58
2023/07/06 09:06:26;;;;;;;4.38;1.33;;;18.70;99.90;;;;;;5041939;28;20059;-59
2023/07/06 09:09:02;;;;;;;6.93;1.42;;;18.70;99.90;;;;;;5041281;28;20076;-59
2023/07/06 09:11:31;;;;;;;3.83;1.50;;;18.80;99.90;;;;;;5045567;28;20056;-62
2023/07/06 09:14:00;;;;;;;4.15;1.70;;;18.90;99.90;;;;;;5029542;28;20515;-62
2023/07/06 09:16:27;;;;;;;5.68;1.75;;;18.80;99.90;;;;;;5017156;28;20044;-60
2023/07/06 09:18:54;;;;;;;4.97;1.10;;;18.80;99.90;;;;;;5036809;28;20558;-60
2023/07/06 09:21:22;;;;;;;8.07;1.35;;;18.80;99.90;;;;;;5040307;28;20506;-60
2023/07/06 09:23:48;;;;;;;4.68;1.38;;;19.00;99.90;;;;;;5030499;28;20045;-59
2023/07/06 09:26:37;;;;;;;4.30;1.33;;;19.00;99.90;;;;;;5036870;28;20049;-60
2023/07/06 09:29:30;;;;;;;4.25;1.33;;;19.10;99.90;;;;;;5038900;28;20048;-60
2023/07/06 09:32:24;;;;;;;6.00;1.42;;;19.30;99.90;;;;;;5042470;28;20049;-61
2023/07/06 09:34:55;;;;;;;2.08;1.00;;;19.30;99.90;;;;;;5038034;28;20092;-60
2023/07/06 09:37:22;;;;;;;4.75;1.80;;;19.20;99.90;;;;;;5034170;28;20084;-59
2023/07/06 09:39:57;;;;;;;5.85;1.50;;;19.20;99.90;;;;;;5038990;28;20484;-60
2023/07/06 09:42:25;;;;;;;3.88;1.27;;;19.10;99.90;;;;;;5050620;28;20045;-60
2023/07/06 09:44:52;;;;;;;3.78;1.20;;;19.00;99.90;;;;;;5032338;28;20048;-60
2023/07/06 09:47:20;;;;;;;4.75;0.95;;;18.90;99.90;;;;;;5030198;28;20056;-60
2023/07/06 09:49:52;;;;;;;6.15;2.00;;;18.70;99.90;;;;;;5027025;28;20124;-60
2023/07/06 09:52:19;;;;;;;2.90;1.20;;;18.70;99.90;;;;;;5003788;28;20049;-61
2023/07/06 09:54:54;;;;;;;6.70;1.67;;;18.70;99.90;;;;;;5024361;28;20061;-61
2023/07/06 09:57:24;;;;;;;3.33;1.40;;;18.80;99.90;;;;;;5026542;28;20049;-60
2023/07/06 09:59:52;;;;;;;5.70;1.55;;;18.90;99.90;;;;;;4993822;28;20045;-60
2023/07/06 10:02:46;;;;;;;4.20;1.92;;;19.00;99.90;;;;;;5025401;28;20041;-60
2023/07/06 10:05:19;;;;;;;12.00;2.42;;;19.00;99.90;;;;;;5036594;28;20045;-60
2023/07/06 10:08:11;;;;;;;2.25;1.17;;;19.20;99.90;;;;;;5038541;28;20041;-59
2023/07/06 10:10:54;;;;;;;6.45;1.35;;;19.40;99.90;;;;;;5036058;28;20049;-60
2023/07/06 10:13:47;;;;;;;4.97;1.50;;;19.40;99.50;;;;;;5012170;28;20066;-60
2023/07/06 10:16:37;;;;;;;7.15;2.47;;;19.40;99.90;;;;;;5032183;28;20117;-59
2023/07/06 10:19:09;;;;;;;6.72;3.03;;;19.40;99.90;;;;;;5031444;28;20076;-60
2023/07/06 10:21:42;;;;;;;2.88;1.48;;;19.40;99.90;;;;;;5034117;28;20107;-60
2023/07/06 10:24:31;;;;;;;3.80;2.17;;;19.40;99.90;;;;;;5007429;28;20129;-60
2023/07/06 10:27:00;;;;;;;5.72;1.88;;;19.40;99.90;;;;;;5015550;28;20057;-58
2023/07/06 10:29:41;;;;;;;6.22;1.85;;;19.40;99.90;;;;;;5045865;28;20057;-59
2023/07/06 10:32:11;;;;;;;10.00;2.92;;;19.40;99.90;;;;;;5025591;28;20562;-59
2023/07/06 10:34:53;;;;;;;5.53;1.70;;;19.60;99.90;;;;;;5022987;28;20060;-60
2023/07/06 10:37:22;;;;;;;5.13;1.77;;;20.10;99.90;;;;;;5021684;28;20048;-59
2023/07/06 10:39:59;;;;;;;3.03;1.55;;;20.30;99.90;;;;;;5008788;28;20049;-59
2023/07/06 10:42:27;;;;;;;6.78;2.05;;;20.20;99.90;;;;;;5021650;28;20046;-59
2023/07/06 10:44:58;;;;;;;4.15;2.50;;;20.10;99.90;;;;;;5039456;28;20048;-64
2023/07/06 10:47:35;;;;;;;5.28;2.33;;;20.30;99.90;;;;;;5041896;28;20057;-60
2023/07/06 10:50:02;;;;;;;3.58;2.42;;;20.70;99.30;;;;;;5039575;28;20041;-59
2023/07/06 10:52:32;;;;;;;5.57;2.90;;;21.00;99.90;;;;;;5043455;28;20496;-60
2023/07/06 10:55:00;;;;;;;4.55;1.70;;;21.10;97.30;;;;;;5028445;28;20045;-60
2023/07/06 10:57:33;;;;;;;3.13;1.60;;;20.90;97.20;;;;;;5026137;28;20037;-59
2023/07/06 11:00:14;;;;;;;4.47;1.27;;;20.70;95.60;;;;;;5016161;28;20041;-60
2023/07/06 11:02:43;;;;;;;6.57;2.13;;;20.70;95.20;;;;;;5002291;28;20038;-60
2023/07/06 11:05:17;;;;;;;5.70;1.75;;;20.70;97.60;;;;;;5028699;28;20120;-60
2023/07/06 11:07:49;;;;;;;8.38;2.40;;;20.90;98.10;;;;;;5022472;28;20052;-59
2023/07/06 11:10:23;;;;;;;14.30;8.65;;;21.00;97.10;;;;;;5036203;28;20504;-59
2023/07/06 11:13:02;;;;;;;8.85;5.22;;;21.00;95.20;;;;;;5035237;28;20049;-60
2023/07/06 11:15:47;;;;;;;4.80;2.60;;;21.00;96.50;;;;;;5039575;28;20053;-60
2023/07/06 11:18:30;;;;;;;4.45;2.00;;;20.90;94.40;;;;;;5040318;28;20118;-61
2023/07/06 11:21:23;;;;;;;40.33;7.03;;;20.90;96.00;;;;;;5048481;28;20060;-60
2023/07/06 11:23:57;;;;;;;7.57;3.05;;;20.90;94.80;;;;;;5011532;28;20041;-59
2023/07/06 11:26:54;;;;;;;14.70;3.90;;;21.10;96.50;;;;;;5040947;28;20052;-59
2023/07/06 11:29:28;;;;;;;12.18;2.75;;;21.00;95.00;;;;;;5040201;28;20099;-59
2023/07/06 11:32:00;;;;;;;14.48;2.10;;;20.70;96.10;;;;;;5008547;28;20040;-60
2023/07/06 11:34:54;;;;;;;6.15;2.05;;;20.70;97.10;;;;;;5034295;28;20053;-59
2023/07/06 11:37:46;;;;;;;9.77;2.75;;;20.70;96.10;;;;;;5040826;28;20080;-60
2023/07/06 11:40:41;;;;;;;3.30;1.13;;;20.90;96.00;;;;;;5027170;28;20254;-60
2023/07/06 11:43:19;;;;;;;8.07;3.03;;;20.50;95.50;;;;;;5018648;28;20373;-60
2023/07/06 11:46:10;;;;;;;8.60;3.03;;;20.50;96.40;;;;;;5029168;28;20060;-60
2023/07/06 11:49:15;;;;;;;7.13;3.45;;;20.70;96.40;;;;;;5009816;28;20114;-60
2023/07/06 11:51:42;;;;;;;4.53;2.28;;;20.80;95.80;;;;;;5037226;28;20037;-59
2023/07/06 11:54:19;;;;;;;7.65;1.80;;;20.80;95.20;;;;;;5028203;28;20063;-60
2023/07/06 11:57:03;;;;;;;6.65;2.63;;;20.90;95.80;;;;;;5024904;28;20081;-60
2023/07/06 11:59:40;;;;;;;4.70;1.80;;;21.00;93.60;;;;;;5009070;28;20071;-60
2023/07/06 12:02:16;;;;;;;15.32;6.57;;;21.10;95.90;;;;;;5014173;28;20125;-60
2023/07/06 12:04:49;;;;;;;3.80;2.00;;;21.30;94.30;;;;;;5022295;28;20520;-59
2023/07/06 12:07:27;;;;;;;5.80;2.22;;;21.40;95.20;;;;;;5045617;28;20048;-60
2023/07/06 12:09:54;;;;;;;8.10;4.75;;;21.40;94.30;;;;;;5023116;28;20049;-59
2023/07/06 12:12:23;;;;;;;6.57;4.10;;;21.40;95.30;;;;;;5036837;28;20048;-61
2023/07/06 12:14:52;;;;;;;9.65;3.83;;;21.20;95.20;;;;;;5046932;28;20057;-60
2023/07/06 12:17:19;;;;;;;8.30;2.40;;;21.50;95.70;;;;;;5018218;28;20053;-60
2023/07/06 12:19:47;;;;;;;7.65;3.30;;;21.60;95.40;;;;;;5043148;28;20388;-60
2023/07/06 12:22:18;;;;;;;12.13;2.72;;;21.80;94.60;;;;;;5029500;28;20548;-60
2023/07/06 12:24:45;;;;;;;8.85;4.20;;;22.00;95.00;;;;;;5022844;28;20060;-62
2023/07/06 12:27:14;;;;;;;5.07;1.90;;;22.00;93.70;;;;;;5038318;28;20041;-60
2023/07/06 12:29:41;;;;;;;9.63;2.35;;;21.90;94.00;;;;;;5037741;28;20045;-60
2023/07/06 12:32:19;;;;;;;4.80;2.00;;;21.80;93.60;;;;;;5036268;28;20045;-60
2023/07/06 12:34:51;;;;;;;4.25;1.70;;;21.80;93.40;;;;;;5039379;28;20640;-60
2023/07/06 12:37:19;;;;;;;6.47;1.85;;;21.90;94.40;;;;;;5024740;28;20045;-61
2023/07/06 12:39:47;;;;;;;5.85;2.25;;;22.00;93.60;;;;;;5035162;28;20053;-59
2023/07/06 12:42:16;;;;;;;5.03;1.60;;;22.30;94.40;;;;;;5020878;28;20094;-59
2023/07/06 12:44:44;;;;;;;7.38;1.77;;;22.40;94.30;;;;;;5029143;28;20052;-59
2023/07/06 12:47:27;;;;;;;4.13;1.85;;;22.40;93.90;;;;;;5018990;28;20095;-60
2023/07/06 12:49:58;;;;;;;5.68;2.65;;;22.20;92.60;;;;;;5037064;28;20056;-58
2023/07/06 12:52:25;;;;;;;7.20;2.17;;;22.30;94.10;;;;;;5037183;28;20037;-60
2023/07/06 12:54:52;;;;;;;11.55;2.20;;;22.40;94.20;;;;;;5035563;28;20519;-59
2023/07/06 12:57:24;;;;;;;4.55;1.90;;;22.50;93.10;;;;;;5015482;28;20044;-60
2023/07/06 13:00:12;;;;;;;4.32;1.83;;;22.30;93.50;;;;;;5038893;28;20124;-59
2023/07/06 13:02:40;;;;;;;6.80;2.30;;;22.30;94.00;;;;;;5027636;28;20048;-59
2023/07/06 13:05:15;;;;;;;4.75;1.67;;;22.40;94.60;;;;;;5021984;28;20056;-60